Wetterstation Vordersexau
Wetterdaten: Woche 05.08.13 - 11.08.13 (KW32)
Datum Zeit Temp. A. Feuchte A. Luftdruck Regen Wind Richtung Taupunkt Windchill Windben
05.08.2013 00:00 17,6 C 80 % 1018,3 hPa 0,0 l/m 0,0 km/h O-NO 14,1 C 17,6 C 0,0 km/h
05.08.2013 01:00 17,7 C 80 % 1017,9 hPa 0,0 l/m 0,0 km/h O-NO 14,2 C 17,7 C 0,0 km/h
05.08.2013 02:00 17,2 C 80 % 1017,4 hPa 0,0 l/m 0,0 km/h S-SO 13,7 C 17,2 C 0,0 km/h
05.08.2013 03:00 15,9 C 80 % 1017,0 hPa 0,0 l/m 0,0 km/h SO 12,5 C 15,9 C 0,0 km/h
05.08.2013 04:00 15,5 C 78 % 1016,7 hPa 0,0 l/m 0,0 km/h O-NO 11,7 C 15,5 C 0,0 km/h
05.08.2013 05:00 15,2 C 77 % 1016,5 hPa 0,0 l/m 0,0 km/h S-SO 11,2 C 15,2 C 0,0 km/h
05.08.2013 06:00 15,0 C 75 % 1016,4 hPa 0,0 l/m 0,0 km/h SO 10,6 C 15,0 C 0,0 km/h
05.08.2013 07:00 15,9 C 71 % 1016,4 hPa 0,0 l/m 0,0 km/h S-SO 10,6 C 15,9 C 0,0 km/h
05.08.2013 08:00 24,6 C 75 % 1016,2 hPa 0,0 l/m 0,0 km/h N-NW 19,9 C 24,6 C 0,0 km/h
05.08.2013 09:00 28,7 C 58 % 1015,8 hPa 0,0 l/m 0,0 km/h N-NW 19,6 C 28,7 C 0,0 km/h
05.08.2013 10:00 30,1 C 53 % 1015,5 hPa 0,0 l/m 0,6 km/h NW 19,4 C 30,1 C 0,4 km/h
05.08.2013 11:00 31,9 C 50 % 1015,0 hPa 0,0 l/m 3,2 km/h S-SW 20,2 C 31,9 C 1,8 km/h
05.08.2013 12:00 31,5 C 51 % 1014,7 hPa 0,0 l/m 0,0 km/h W-NW 20,1 C 31,5 C 0,0 km/h
05.08.2013 13:00 32,9 C 49 % 1013,8 hPa 0,0 l/m 0,0 km/h N 20,7 C 32,9 C 0,0 km/h
05.08.2013 14:00 33,7 C 47 % 1013,3 hPa 0,0 l/m 3,2 km/h W-SW 20,8 C 33,7 C 1,8 km/h
05.08.2013 15:00 36,8 C 41 % 1012,9 hPa 0,0 l/m 0,0 km/h W-NW 21,3 C 36,8 C 0,0 km/h
05.08.2013 16:00 38,9 C 37 % 1012,3 hPa 0,0 l/m 13,6 km/h W-NW 21,5 C 38,9 C 7,6 km/h
05.08.2013 17:00 41,4 C 33 % 1011,9 hPa 0,0 l/m 5,2 km/h W-NW 21,8 C 41,4 C 2,9 km/h
05.08.2013 18:00 39,6 C 31 % 1011,5 hPa 0,0 l/m 0,0 km/h N-NW 19,3 C 39,6 C 0,0 km/h
05.08.2013 19:00 36,6 C 37 % 1011,9 hPa 0,0 l/m 0,0 km/h O-NO 19,5 C 36,6 C 0,0 km/h
05.08.2013 20:00 28,1 C 57 % 1011,9 hPa 0,0 l/m 0,0 km/h O-NO 18,8 C 28,1 C 0,0 km/h
05.08.2013 21:00 24,5 C 67 % 1012,4 hPa 0,0 l/m 0,0 km/h S 18,0 C 24,5 C 0,0 km/h
05.08.2013 22:00 23,0 C 72 % 1012,9 hPa 0,0 l/m 0,0 km/h S-SO 17,7 C 23,0 C 0,0 km/h
05.08.2013 23:00 21,9 C 75 % 1013,5 hPa 0,0 l/m 0,0 km/h S-SO 17,3 C 21,9 C 0,0 km/h
06.08.2013 00:00 22,5 C 76 % 1013,6 hPa 0,0 l/m 0,0 km/h O-NO 18,0 C 22,5 C 0,0 km/h
06.08.2013 01:00 21,4 C 77 % 1013,2 hPa 0,0 l/m 0,0 km/h SO 17,2 C 21,4 C 0,0 km/h
06.08.2013 02:00 21,2 C 78 % 1013,5 hPa 0,0 l/m 0,0 km/h S 17,2 C 21,2 C 0,0 km/h
06.08.2013 03:00 20,2 C 79 % 1013,5 hPa 0,0 l/m 0,0 km/h S-SO 16,4 C 20,2 C 0,0 km/h
06.08.2013 04:00 19,6 C 80 % 1013,4 hPa 0,0 l/m 0,0 km/h O 16,1 C 19,6 C 0,0 km/h
06.08.2013 05:00 19,1 C 80 % 1013,5 hPa 0,0 l/m 0,0 km/h S-SO 15,6 C 19,1 C 0,0 km/h
06.08.2013 06:00 19,2 C 78 % 1013,9 hPa 0,0 l/m 0,0 km/h S-SO 15,3 C 19,2 C 0,0 km/h
06.08.2013 07:00 20,2 C 78 % 1014,0 hPa 0,0 l/m 0,0 km/h S 16,2 C 20,2 C 0,0 km/h
06.08.2013 08:00 27,6 C 69 % 1014,1 hPa 0,0 l/m 0,0 km/h N-NW 21,4 C 27,6 C 0,0 km/h
06.08.2013 09:00 29,6 C 59 % 1014,5 hPa 0,0 l/m 0,0 km/h NW 20,7 C 29,6 C 0,0 km/h
06.08.2013 10:00 32,1 C 53 % 1014,4 hPa 0,0 l/m 0,0 km/h W-SW 21,3 C 32,1 C 0,0 km/h
06.08.2013 11:00 33,4 C 49 % 1014,2 hPa 0,0 l/m 2,6 km/h W 21,2 C 33,4 C 1,4 km/h
06.08.2013 12:00 33,8 C 49 % 1013,8 hPa 0,0 l/m 1,9 km/h N-NW 21,6 C 33,8 C 1,1 km/h
06.08.2013 13:00 31,8 C 50 % 1013,5 hPa 0,0 l/m 24,0 km/h W 20,1 C 31,4 C 13,3 km/h
06.08.2013 14:00 32,9 C 48 % 1012,9 hPa 0,0 l/m 0,0 km/h NO 20,4 C 32,9 C 0,0 km/h
06.08.2013 15:00 25,5 C 62 % 1014,0 hPa 0,0 l/m 0,0 km/h O 17,7 C 25,5 C 0,0 km/h
06.08.2013 16:00 34,0 C 46 % 1013,2 hPa 0,0 l/m 3,2 km/h S 20,7 C 34,0 C 1,8 km/h
06.08.2013 17:00 37,2 C 39 % 1011,7 hPa 0,0 l/m 0,0 km/h N-NW 20,9 C 37,2 C 0,0 km/h
06.08.2013 18:00 29,9 C 50 % 1012,0 hPa 0,0 l/m 5,8 km/h N-NW 18,3 C 29,9 C 3,2 km/h
06.08.2013 19:00 24,1 C 62 % 1012,1 hPa 0,0 l/m 1,9 km/h W-NW 16,4 C 24,1 C 1,1 km/h
06.08.2013 20:00 21,6 C 70 % 1012,4 hPa 0,0 l/m 1,3 km/h S-SO 15,9 C 21,6 C 0,7 km/h
06.08.2013 21:00 20,1 C 75 % 1012,5 hPa 0,0 l/m 0,0 km/h SO 15,5 C 20,1 C 0,0 km/h
06.08.2013 22:00 19,0 C 78 % 1012,1 hPa 0,0 l/m 0,0 km/h N 15,1 C 19,0 C 0,0 km/h
06.08.2013 23:00 19,4 C 76 % 1011,6 hPa 0,0 l/m 0,0 km/h W 15,1 C 19,4 C 0,0 km/h
07.08.2013 00:00 18,2 C 77 % 1011,2 hPa 0,0 l/m 0,0 km/h W-SW 14,1 C 18,2 C 0,0 km/h
07.08.2013 01:00 17,1 C 80 % 1011,1 hPa 0,0 l/m 0,0 km/h N 13,6 C 17,1 C 0,0 km/h
07.08.2013 02:00 17,5 C 80 % 1011,5 hPa 0,0 l/m 0,0 km/h N-NO 14,0 C 17,5 C 0,0 km/h
07.08.2013 03:00 17,6 C 76 % 1008,4 hPa 0,5 l/m 0,0 km/h S-SW 13,3 C 17,6 C 0,0 km/h
07.08.2013 04:00 17,1 C 74 % 1008,1 hPa 0,0 l/m 0,0 km/h NW 12,4 C 17,1 C 0,0 km/h
07.08.2013 05:00 17,6 C 62 % 1013,1 hPa 1,0 l/m 0,0 km/h S-SO 10,2 C 17,6 C 0,0 km/h
07.08.2013 06:00 17,3 C 64 % 1010,0 hPa 2,6 l/m 0,0 km/h S-SO 10,4 C 17,3 C 0,0 km/h
07.08.2013 07:00 17,6 C 63 % 1008,9 hPa 0,0 l/m 0,0 km/h S-SO 10,5 C 17,6 C 0,0 km/h
07.08.2013 08:00 19,5 C 80 % 1008,4 hPa 0,0 l/m 3,2 km/h W 16,0 C 19,5 C 1,8 km/h
07.08.2013 09:00 20,7 C 80 % 1009,7 hPa 0,0 l/m 0,0 km/h W 17,1 C 20,7 C 0,0 km/h
07.08.2013 10:00 22,9 C 74 % 1009,7 hPa 0,0 l/m 0,0 km/h O-SO 18,0 C 22,9 C 0,0 km/h
07.08.2013 11:00 25,8 C 68 % 1009,2 hPa 0,0 l/m 0,0 km/h SW 19,4 C 25,8 C 0,0 km/h
07.08.2013 12:00 31,5 C 48 % 1009,1 hPa 0,0 l/m 3,2 km/h S 19,1 C 31,5 C 1,8 km/h
07.08.2013 13:00 30,4 C 48 % 1008,8 hPa 0,0 l/m 19,4 km/h W-NW 18,1 C 29,7 C 10,8 km/h
07.08.2013 14:00 30,4 C 47 % 1009,2 hPa 0,0 l/m 20,7 km/h W-NW 17,8 C 29,6 C 11,5 km/h
07.08.2013 15:00 24,6 C 63 % 1010,5 hPa 0,0 l/m 18,8 km/h W-NW 17,1 C 22,3 C 10,4 km/h
07.08.2013 16:00 24,1 C 60 % 1010,5 hPa 0,0 l/m 13,6 km/h NW 15,8 C 22,5 C 7,6 km/h
07.08.2013 17:00 22,2 C 66 % 1011,0 hPa 0,0 l/m 4,5 km/h NW 15,5 C 22,2 C 2,5 km/h
07.08.2013 18:00 19,6 C 78 % 1011,9 hPa 0,0 l/m 0,0 km/h S-SO 15,7 C 19,6 C 0,0 km/h
07.08.2013 19:00 17,4 C 80 % 1011,1 hPa 2,1 l/m 0,0 km/h S-SO 13,9 C 17,4 C 0,0 km/h
07.08.2013 20:00 17,5 C 78 % 1012,0 hPa 1,0 l/m 0,0 km/h O-NO 13,6 C 17,5 C 0,0 km/h
07.08.2013 21:00 17,1 C 78 % 1012,5 hPa 0,5 l/m 0,0 km/h S-SO 13,2 C 17,1 C 0,0 km/h
07.08.2013 22:00 16,9 C 76 % 1012,8 hPa 1,6 l/m 0,0 km/h S 12,6 C 16,9 C 0,0 km/h
07.08.2013 23:00 16,6 C 74 % 1012,4 hPa 1,0 l/m 0,0 km/h S-SO 11,9 C 16,6 C 0,0 km/h
08.08.2013 00:00 16,6 C 71 % 1012,4 hPa 0,5 l/m 0,0 km/h SO 11,3 C 16,6 C 0,0 km/h
08.08.2013 01:00 16,4 C 68 % 1012,5 hPa 0,0 l/m 0,0 km/h S-SO 10,5 C 16,4 C 0,0 km/h
08.08.2013 02:00 16,3 C 67 % 1011,9 hPa 0,0 l/m 0,0 km/h S-SO 10,2 C 16,3 C 0,0 km/h
08.08.2013 03:00 16,2 C 65 % 1012,3 hPa 0,0 l/m 0,0 km/h S-SO 9,6 C 16,2 C 0,0 km/h
08.08.2013 04:00 15,9 C 64 % 1012,0 hPa 0,0 l/m 0,0 km/h S 9,1 C 15,9 C 0,0 km/h
08.08.2013 05:00 15,9 C 63 % 1012,7 hPa 0,0 l/m 0,0 km/h S-SO 8,9 C 15,9 C 0,0 km/h
08.08.2013 06:00 15,9 C 62 % 1012,1 hPa 0,0 l/m 0,0 km/h S 8,6 C 15,9 C 0,0 km/h
08.08.2013 07:00 16,3 C 60 % 1013,3 hPa 0,0 l/m 0,0 km/h O-NO 8,5 C 16,3 C 0,0 km/h
08.08.2013 08:00 17,7 C 58 % 1013,6 hPa 0,0 l/m 0,0 km/h O-NO 9,3 C 17,7 C 0,0 km/h
08.08.2013 09:00 19,1 C 64 % 1013,8 hPa 0,0 l/m 0,0 km/h O-NO 12,1 C 19,1 C 0,0 km/h
08.08.2013 10:00 26,5 C 65 % 1013,5 hPa 0,0 l/m 0,0 km/h N-NW 19,4 C 26,5 C 0,0 km/h
08.08.2013 11:00 24,1 C 66 % 1013,6 hPa 0,0 l/m 0,0 km/h N-NW 17,3 C 24,1 C 0,0 km/h
08.08.2013 12:00 22,9 C 71 % 1014,0 hPa 0,0 l/m 18,8 km/h N-NW 17,4 C 20,1 C 10,4 km/h
08.08.2013 13:00 20,4 C 78 % 1014,6 hPa 0,0 l/m 11,0 km/h O-NO 16,4 C 18,8 C 6,1 km/h
08.08.2013 14:00 20,1 C 79 % 1014,9 hPa 0,0 l/m 0,0 km/h NW 16,3 C 20,1 C 0,0 km/h
08.08.2013 15:00 22,3 C 74 % 1015,1 hPa 0,0 l/m 9,1 km/h N-NO 17,4 C 21,4 C 5,0 km/h
08.08.2013 16:00 27,6 C 57 % 1015,3 hPa 0,0 l/m 0,0 km/h N 18,3 C 27,6 C 0,0 km/h
08.08.2013 17:00 23,5 C 70 % 1015,6 hPa 0,0 l/m 0,0 km/h NW 17,7 C 23,5 C 0,0 km/h
08.08.2013 18:00 22,5 C 71 % 1015,8 hPa 0,0 l/m 1,9 km/h N-NO 17,0 C 22,5 C 1,1 km/h
08.08.2013 19:00 20,5 C 76 % 1016,6 hPa 0,0 l/m 0,0 km/h N 16,1 C 20,5 C 0,0 km/h
08.08.2013 20:00 19,8 C 78 % 1016,9 hPa 0,0 l/m 0,0 km/h N 15,8 C 19,8 C 0,0 km/h
08.08.2013 21:00 18,6 C 80 % 1017,4 hPa 0,0 l/m 0,0 km/h N 15,1 C 18,6 C 0,0 km/h
08.08.2013 22:00 17,8 C 80 % 1017,7 hPa 0,0 l/m 0,0 km/h N 14,3 C 17,8 C 0,0 km/h
08.08.2013 23:00 17,8 C 78 % 1018,5 hPa 0,0 l/m 0,0 km/h NW 13,9 C 17,8 C 0,0 km/h
09.08.2013 00:00 17,9 C 78 % 1018,7 hPa 0,0 l/m 1,9 km/h NW 14,0 C 17,9 C 1,1 km/h
09.08.2013 01:00 17,2 C 74 % 1018,7 hPa 0,5 l/m 0,0 km/h W-NW 12,5 C 17,2 C 0,0 km/h
09.08.2013 02:00 16,9 C 69 % 1018,8 hPa 1,0 l/m 0,0 km/h N-NO 11,2 C 16,9 C 0,0 km/h
09.08.2013 03:00 16,4 C 66 % 1018,8 hPa 0,0 l/m 0,0 km/h NW 10,0 C 16,4 C 0,0 km/h
09.08.2013 04:00 16,3 C 65 % 1018,6 hPa 0,0 l/m 0,0 km/h N-NW 9,7 C 16,3 C 0,0 km/h
09.08.2013 05:00 16,1 C 63 % 1018,9 hPa 0,0 l/m 1,9 km/h N-NO 9,1 C 16,1 C 1,1 km/h
09.08.2013 06:00 15,9 C 61 % 1019,3 hPa 0,0 l/m 0,0 km/h W 8,4 C 15,9 C 0,0 km/h
09.08.2013 07:00 16,3 C 61 % 1019,4 hPa 0,0 l/m 0,0 km/h SW 8,8 C 16,3 C 0,0 km/h
09.08.2013 08:00 17,3 C 58 % 1019,4 hPa 0,0 l/m 0,0 km/h NW 9,0 C 17,3 C 0,0 km/h
09.08.2013 09:00 18,9 C 81 % 1019,6 hPa 0,0 l/m 5,8 km/h N 15,6 C 18,9 C 3,2 km/h
09.08.2013 10:00 20,6 C 77 % 1019,7 hPa 0,0 l/m 0,0 km/h N-NW 16,4 C 20,6 C 0,0 km/h
09.08.2013 11:00 19,8 C 78 % 1019,9 hPa 0,0 l/m 0,0 km/h W-NW 15,8 C 19,8 C 0,0 km/h
09.08.2013 12:00 19,8 C 78 % 1019,8 hPa 0,0 l/m 1,9 km/h W 15,8 C 19,8 C 1,1 km/h
09.08.2013 13:00 20,4 C 77 % 1019,5 hPa 0,0 l/m 0,0 km/h W-NW 16,2 C 20,4 C 0,0 km/h
09.08.2013 14:00 25,1 C 60 % 1019,6 hPa 0,0 l/m 0,0 km/h NW 16,8 C 25,1 C 0,0 km/h
09.08.2013 15:00 26,1 C 56 % 1019,3 hPa 0,0 l/m 1,9 km/h N-NW 16,6 C 26,1 C 1,1 km/h
09.08.2013 16:00 29,3 C 46 % 1019,0 hPa 0,0 l/m 2,6 km/h O-NO 16,5 C 29,3 C 1,4 km/h
09.08.2013 17:00 31,9 C 40 % 1019,0 hPa 0,0 l/m 0,0 km/h N-NW 16,6 C 31,9 C 0,0 km/h
09.08.2013 18:00 32,9 C 35 % 1019,0 hPa 0,0 l/m 6,5 km/h W 15,4 C 32,9 C 3,6 km/h
09.08.2013 19:00 30,3 C 39 % 1019,0 hPa 0,0 l/m 0,0 km/h O-SO 14,8 C 30,3 C 0,0 km/h
09.08.2013 20:00 20,4 C 65 % 1019,5 hPa 0,0 l/m 0,0 km/h O-NO 13,6 C 20,4 C 0,0 km/h
09.08.2013 21:00 16,5 C 76 % 1019,7 hPa 0,0 l/m 0,0 km/h S-SO 12,3 C 16,5 C 0,0 km/h
09.08.2013 22:00 14,6 C 79 % 1019,9 hPa 0,0 l/m 0,0 km/h O-NO 11,0 C 14,6 C 0,0 km/h
09.08.2013 23:00 14,2 C 81 % 1020,0 hPa 0,0 l/m 0,0 km/h S-SO 11,0 C 14,2 C 0,0 km/h
10.08.2013 00:00 14,4 C 81 % 1019,6 hPa 0,0 l/m 1,3 km/h S-SO 11,2 C 14,4 C 0,7 km/h
10.08.2013 01:00 13,8 C 81 % 1019,9 hPa 0,0 l/m 0,0 km/h O-SO 10,6 C 13,8 C 0,0 km/h
10.08.2013 02:00 13,6 C 80 % 1019,5 hPa 0,0 l/m 0,0 km/h S 10,2 C 13,6 C 0,0 km/h
10.08.2013 03:00 13,8 C 80 % 1019,0 hPa 0,0 l/m 0,0 km/h S-SO 10,4 C 13,8 C 0,0 km/h
10.08.2013 04:00 14,2 C 81 % 1018,8 hPa 0,0 l/m 0,0 km/h S-SO 11,0 C 14,2 C 0,0 km/h
10.08.2013 05:00 12,9 C 81 % 1018,9 hPa 0,0 l/m 0,0 km/h S 9,7 C 12,9 C 0,0 km/h
10.08.2013 06:00 12,9 C 79 % 1019,2 hPa 0,0 l/m 0,0 km/h S-SO 9,3 C 12,9 C 0,0 km/h
10.08.2013 07:00 13,0 C 77 % 1019,5 hPa 0,0 l/m 0,0 km/h S 9,1 C 13,0 C 0,0 km/h
10.08.2013 08:00 18,8 C 80 % 1019,7 hPa 0,0 l/m 2,6 km/h W-NW 15,3 C 18,8 C 1,4 km/h
10.08.2013 09:00 25,8 C 58 % 1019,8 hPa 0,0 l/m 0,0 km/h W-SW 16,9 C 25,8 C 0,0 km/h
10.08.2013 10:00 23,4 C 63 % 1019,9 hPa 0,0 l/m 1,9 km/h NW 15,9 C 23,4 C 1,1 km/h
10.08.2013 11:00 26,8 C 55 % 1019,7 hPa 0,0 l/m 0,0 km/h N-NW 17,0 C 26,8 C 0,0 km/h
10.08.2013 12:00 26,8 C 52 % 1019,3 hPa 0,0 l/m 12,3 km/h W 16,1 C 25,8 C 6,8 km/h
10.08.2013 13:00 27,8 C 47 % 1018,9 hPa 0,0 l/m 0,0 km/h W-NW 15,4 C 27,8 C 0,0 km/h
10.08.2013 14:00 28,1 C 45 % 1018,3 hPa 0,0 l/m 1,9 km/h N 15,0 C 28,1 C 1,1 km/h
10.08.2013 15:00 30,5 C 41 % 1018,1 hPa 0,0 l/m 18,8 km/h NW 15,7 C 29,8 C 10,4 km/h
10.08.2013 16:00 29,6 C 40 % 1017,7 hPa 0,0 l/m 1,9 km/h O-NO 14,5 C 29,6 C 1,1 km/h
10.08.2013 17:00 25,8 C 50 % 1017,9 hPa 0,0 l/m 13,0 km/h N-NW 14,6 C 24,6 C 7,2 km/h
10.08.2013 18:00 30,9 C 42 % 1017,8 hPa 0,0 l/m 2,6 km/h NO 16,5 C 30,9 C 1,4 km/h
10.08.2013 19:00 23,8 C 55 % 1017,9 hPa 0,0 l/m 0,0 km/h NO 14,2 C 23,8 C 0,0 km/h
10.08.2013 20:00 22,9 C 58 % 1017,9 hPa 0,0 l/m 0,6 km/h O-NO 14,2 C 22,9 C 0,4 km/h
10.08.2013 21:00 20,9 C 59 % 1018,3 hPa 0,0 l/m 4,5 km/h O-SO 12,6 C 20,9 C 2,5 km/h
10.08.2013 22:00 17,0 C 68 % 1018,6 hPa 0,0 l/m 0,0 km/h S 11,0 C 17,0 C 0,0 km/h
10.08.2013 23:00 14,9 C 75 % 1018,6 hPa 0,0 l/m 0,0 km/h O-SO 10,5 C 14,9 C 0,0 km/h
11.08.2013 00:00 13,8 C 80 % 1019,0 hPa 0,0 l/m 0,0 km/h O-SO 10,4 C 13,8 C 0,0 km/h
11.08.2013 01:00 14,8 C 81 % 1018,9 hPa 0,0 l/m 0,0 km/h O 11,6 C 14,8 C 0,0 km/h
11.08.2013 02:00 14,5 C 81 % 1018,7 hPa 0,0 l/m 0,0 km/h O 11,3 C 14,5 C 0,0 km/h
11.08.2013 03:00 13,2 C 81 % 1018,6 hPa 0,0 l/m 0,0 km/h S 10,0 C 13,2 C 0,0 km/h
11.08.2013 04:00 12,8 C 81 % 1018,5 hPa 0,0 l/m 0,0 km/h O-SO 9,6 C 12,8 C 0,0 km/h
11.08.2013 05:00 12,1 C 81 % 1018,1 hPa 0,0 l/m 0,0 km/h SO 8,9 C 12,1 C 0,0 km/h
11.08.2013 06:00 11,0 C 81 % 1018,3 hPa 0,0 l/m 0,0 km/h SO 7,9 C 11,0 C 0,0 km/h
11.08.2013 07:00 11,8 C 78 % 1018,6 hPa 0,0 l/m 0,0 km/h NO 8,1 C 11,8 C 0,0 km/h
11.08.2013 08:00 18,9 C 75 % 1018,7 hPa 0,0 l/m 0,0 km/h N-NW 14,4 C 18,9 C 0,0 km/h
11.08.2013 09:00 24,2 C 56 % 1019,0 hPa 0,0 l/m 7,8 km/h N 14,9 C 23,8 C 4,3 km/h
11.08.2013 10:00 23,8 C 58 % 1018,9 hPa 0,0 l/m 0,0 km/h N 15,0 C 23,8 C 0,0 km/h
11.08.2013 11:00 27,6 C 48 % 1018,9 hPa 0,0 l/m 0,0 km/h S-SW 15,6 C 27,6 C 0,0 km/h
11.08.2013 12:00 27,9 C 46 % 1018,6 hPa 0,0 l/m 6,5 km/h N-NW 15,2 C 27,9 C 3,6 km/h
11.08.2013 13:00 27,6 C 43 % 1018,0 hPa 0,0 l/m 0,0 km/h W-NW 13,9 C 27,6 C 0,0 km/h
11.08.2013 14:00 28,3 C 42 % 1017,7 hPa 0,0 l/m 13,6 km/h W-SW 14,1 C 27,4 C 7,6 km/h
11.08.2013 15:00 29,7 C 39 % 1017,2 hPa 0,0 l/m 18,8 km/h W 14,2 C 28,8 C 10,4 km/h
11.08.2013 16:00 32,1 C 35 % 1016,9 hPa 0,0 l/m 0,0 km/h N-NW 14,7 C 32,1 C 0,0 km/h
11.08.2013 17:00 26,5 C 41 % 1016,5 hPa 0,0 l/m 0,0 km/h NO 12,2 C 26,5 C 0,0 km/h
11.08.2013 18:00 29,2 C 37 % 1016,2 hPa 0,0 l/m 20,1 km/h NO 13,0 C 28,1 C 11,2 km/h
11.08.2013 19:00 24,1 C 48 % 1015,8 hPa 0,0 l/m 3,9 km/h O 12,4 C 24,1 C 2,2 km/h
11.08.2013 20:00 20,8 C 62 % 1016,2 hPa 0,0 l/m 0,0 km/h S 13,2 C 20,8 C 0,0 km/h
11.08.2013 21:00 19,4 C 70 % 1016,6 hPa 0,0 l/m 0,0 km/h O-SO 13,8 C 19,4 C 0,0 km/h
11.08.2013 22:00 18,6 C 73 % 1017,0 hPa 0,0 l/m 0,0 km/h O 13,7 C 18,6 C 0,0 km/h
11.08.2013 23:00 18,1 C 75 % 1017,1 hPa 0,0 l/m 0,0 km/h O-SO 13,6 C 18,1 C 0,0 km/h
Min-Datum _ 11.08.13 05.08.13 07.08.13 - 05.08.13 - 11.08.13 11.08.13 05.08.13
_ Min-Zeit 06:19 18:19 04:19 - 00:19 - 06:19 06:19 00:19
Minimum _ 11,0 C 31 % 1008,1 hPa - 0,0 km/h - 7,9 C 11,0 C 0,0 km/h
Max-Datum _ 05.08.13 09.08.13 09.08.13 07.08.13 06.08.13 - 05.08.13 05.08.13 06.08.13
_ Max-Zeit 17:19 09:19 23:19 06:19 13:19 - 17:19 17:19 13:19
Maximum _ 41,4 C 81 % 1020,0 hPa 2,6 l/m 24,0 km/h
W
- 21,8 C 41,4 C 13,3 km/h
W
Durchschnitt _ 22,1 C 65 % 1015,5 hPa #12,4 l/m 2,1 km/h S-SO 14,7 C 22,0 C 1,1 km/h
www.sexauwetter.de